sensor_id;sensor_type;location;lat;lon;timestamp;P1;durP1;ratioP1;P2;durP2;ratioP2
71080;SDS011;58740;50.672;18.690;2023-06-04T00:01:10;7.80;;;2.90;;
71080;SDS011;58740;50.672;18.690;2023-06-04T00:03:57;7.70;;;2.80;;
71080;SDS011;58740;50.672;18.690;2023-06-04T00:06:25;8.00;;;2.60;;
71080;SDS011;58740;50.672;18.690;2023-06-04T00:08:52;7.20;;;2.90;;
71080;SDS011;58740;50.672;18.690;2023-06-04T00:11:20;7.50;;;2.10;;
71080;SDS011;58740;50.672;18.690;2023-06-04T00:13:48;7.30;;;2.90;;
71080;SDS011;58740;50.672;18.690;2023-06-04T00:16:16;6.30;;;2.40;;
71080;SDS011;58740;50.672;18.690;2023-06-04T00:18:43;9.30;;;2.50;;
71080;SDS011;58740;50.672;18.690;2023-06-04T00:21:11;6.90;;;2.40;;
71080;SDS011;58740;50.672;18.690;2023-06-04T00:23:39;8.20;;;2.60;;
71080;SDS011;58740;50.672;18.690;2023-06-04T00:26:07;7.60;;;1.90;;
71080;SDS011;58740;50.672;18.690;2023-06-04T00:28:34;5.80;;;1.70;;
71080;SDS011;58740;50.672;18.690;2023-06-04T00:31:04;7.50;;;2.20;;
71080;SDS011;58740;50.672;18.690;2023-06-04T00:33:35;5.70;;;1.90;;
71080;SDS011;58740;50.672;18.690;2023-06-04T00:36:03;8.50;;;2.00;;
71080;SDS011;58740;50.672;18.690;2023-06-04T00:38:31;5.90;;;1.90;;
71080;SDS011;58740;50.672;18.690;2023-06-04T00:40:59;5.60;;;1.90;;
71080;SDS011;58740;50.672;18.690;2023-06-04T00:43:27;5.80;;;2.20;;
71080;SDS011;58740;50.672;18.690;2023-06-04T00:45:55;4.40;;;1.50;;
71080;SDS011;58740;50.672;18.690;2023-06-04T00:48:23;5.80;;;2.00;;
71080;SDS011;58740;50.672;18.690;2023-06-04T00:50:54;7.10;;;1.50;;
71080;SDS011;58740;50.672;18.690;2023-06-04T00:53:24;6.50;;;2.20;;
71080;SDS011;58740;50.672;18.690;2023-06-04T00:55:52;6.70;;;2.20;;
71080;SDS011;58740;50.672;18.690;2023-06-04T00:58:20;8.20;;;2.00;;
71080;SDS011;58740;50.672;18.690;2023-06-04T01:00:48;6.40;;;2.30;;
71080;SDS011;58740;50.672;18.690;2023-06-04T01:03:18;5.50;;;2.10;;
71080;SDS011;58740;50.672;18.690;2023-06-04T01:08:27;5.50;;;2.10;;
71080;SDS011;58740;50.672;18.690;2023-06-04T01:10:55;7.60;;;2.70;;
71080;SDS011;58740;50.672;18.690;2023-06-04T01:13:24;6.40;;;2.40;;
71080;SDS011;58740;50.672;18.690;2023-06-04T01:15:52;5.70;;;2.20;;
71080;SDS011;58740;50.672;18.690;2023-06-04T01:18:24;6.70;;;2.30;;
71080;SDS011;58740;50.672;18.690;2023-06-04T01:21:00;5.30;;;1.80;;
71080;SDS011;58740;50.672;18.690;2023-06-04T01:23:50;8.50;;;2.10;;
71080;SDS011;58740;50.672;18.690;2023-06-04T01:26:30;5.80;;;2.10;;
71080;SDS011;58740;50.672;18.690;2023-06-04T01:29:00;5.60;;;2.10;;
71080;SDS011;58740;50.672;18.690;2023-06-04T01:31:29;5.00;;;1.80;;
71080;SDS011;58740;50.672;18.690;2023-06-04T01:34:01;5.00;;;1.90;;
71080;SDS011;58740;50.672;18.690;2023-06-04T01:36:29;5.70;;;1.90;;
71080;SDS011;58740;50.672;18.690;2023-06-04T01:38:57;5.20;;;2.00;;
71080;SDS011;58740;50.672;18.690;2023-06-04T01:41:25;4.60;;;1.50;;
71080;SDS011;58740;50.672;18.690;2023-06-04T01:43:53;4.80;;;1.40;;
71080;SDS011;58740;50.672;18.690;2023-06-04T01:46:21;5.60;;;1.80;;
71080;SDS011;58740;50.672;18.690;2023-06-04T01:48:49;3.60;;;1.40;;
71080;SDS011;58740;50.672;18.690;2023-06-04T01:51:17;6.40;;;1.60;;
71080;SDS011;58740;50.672;18.690;2023-06-04T01:53:45;4.10;;;1.30;;
71080;SDS011;58740;50.672;18.690;2023-06-04T01:56:13;6.70;;;1.50;;
71080;SDS011;58740;50.672;18.690;2023-06-04T01:58:41;7.90;;;2.00;;
71080;SDS011;58740;50.672;18.690;2023-06-04T02:01:09;4.50;;;1.60;;
71080;SDS011;58740;50.672;18.690;2023-06-04T02:03:37;4.90;;;1.60;;
71080;SDS011;58740;50.672;18.690;2023-06-04T02:06:05;7.00;;;2.10;;
71080;SDS011;58740;50.672;18.690;2023-06-04T02:08:35;4.90;;;1.30;;
71080;SDS011;58740;50.672;18.690;2023-06-04T02:11:03;7.10;;;2.00;;
71080;SDS011;58740;50.672;18.690;2023-06-04T02:13:31;4.30;;;1.20;;
71080;SDS011;58740;50.672;18.690;2023-06-04T02:15:59;6.20;;;1.30;;
71080;SDS011;58740;50.672;18.690;2023-06-04T02:18:27;4.00;;;1.50;;
71080;SDS011;58740;50.672;18.690;2023-06-04T02:20:56;4.20;;;1.50;;
71080;SDS011;58740;50.672;18.690;2023-06-04T02:23:25;4.00;;;1.40;;
71080;SDS011;58740;50.672;18.690;2023-06-04T02:25:53;5.10;;;1.50;;
71080;SDS011;58740;50.672;18.690;2023-06-04T02:28:21;5.00;;;1.70;;
71080;SDS011;58740;50.672;18.690;2023-06-04T02:30:49;4.30;;;1.20;;
71080;SDS011;58740;50.672;18.690;2023-06-04T02:33:17;5.20;;;1.70;;
71080;SDS011;58740;50.672;18.690;2023-06-04T02:35:44;4.30;;;1.40;;
71080;SDS011;58740;50.672;18.690;2023-06-04T02:38:12;5.00;;;1.20;;
71080;SDS011;58740;50.672;18.690;2023-06-04T02:40:42;5.30;;;1.50;;
71080;SDS011;58740;50.672;18.690;2023-06-04T02:43:11;4.10;;;1.30;;
71080;SDS011;58740;50.672;18.690;2023-06-04T02:45:39;4.50;;;1.20;;
71080;SDS011;58740;50.672;18.690;2023-06-04T02:48:07;6.10;;;1.60;;
71080;SDS011;58740;50.672;18.690;2023-06-04T02:50:35;3.80;;;1.20;;
71080;SDS011;58740;50.672;18.690;2023-06-04T02:53:02;4.80;;;1.40;;
71080;SDS011;58740;50.672;18.690;2023-06-04T02:55:30;4.70;;;1.30;;
71080;SDS011;58740;50.672;18.690;2023-06-04T02:57:58;4.40;;;1.20;;
71080;SDS011;58740;50.672;18.690;2023-06-04T03:00:26;3.80;;;1.30;;
71080;SDS011;58740;50.672;18.690;2023-06-04T03:02:54;5.00;;;1.40;;
71080;SDS011;58740;50.672;18.690;2023-06-04T03:05:29;6.10;;;1.50;;
71080;SDS011;58740;50.672;18.690;2023-06-04T03:08:01;4.80;;;1.40;;
71080;SDS011;58740;50.672;18.690;2023-06-04T03:10:31;4.80;;;1.20;;
71080;SDS011;58740;50.672;18.690;2023-06-04T03:12:58;4.90;;;1.20;;
71080;SDS011;58740;50.672;18.690;2023-06-04T03:15:26;5.30;;;1.10;;
71080;SDS011;58740;50.672;18.690;2023-06-04T03:17:54;5.50;;;1.30;;
71080;SDS011;58740;50.672;18.690;2023-06-04T03:20:22;4.40;;;1.50;;
71080;SDS011;58740;50.672;18.690;2023-06-04T03:22:51;4.80;;;1.20;;
71080;SDS011;58740;50.672;18.690;2023-06-04T03:25:19;4.10;;;1.30;;
71080;SDS011;58740;50.672;18.690;2023-06-04T03:27:47;6.10;;;1.70;;
71080;SDS011;58740;50.672;18.690;2023-06-04T03:30:15;3.60;;;1.40;;
71080;SDS011;58740;50.672;18.690;2023-06-04T03:32:42;3.80;;;1.50;;
71080;SDS011;58740;50.672;18.690;2023-06-04T03:35:12;4.10;;;1.30;;
71080;SDS011;58740;50.672;18.690;2023-06-04T03:37:40;4.60;;;1.30;;
71080;SDS011;58740;50.672;18.690;2023-06-04T03:40:08;6.00;;;1.90;;
71080;SDS011;58740;50.672;18.690;2023-06-04T03:42:36;4.90;;;1.40;;
71080;SDS011;58740;50.672;18.690;2023-06-04T03:45:04;6.90;;;1.60;;
71080;SDS011;58740;50.672;18.690;2023-06-04T03:47:33;6.10;;;1.40;;
71080;SDS011;58740;50.672;18.690;2023-06-04T03:50:01;5.70;;;1.90;;
71080;SDS011;58740;50.672;18.690;2023-06-04T03:52:29;4.40;;;1.40;;
71080;SDS011;58740;50.672;18.690;2023-06-04T03:54:57;5.90;;;1.40;;
71080;SDS011;58740;50.672;18.690;2023-06-04T03:57:24;4.60;;;1.10;;
71080;SDS011;58740;50.672;18.690;2023-06-04T03:59:52;5.40;;;1.40;;
71080;SDS011;58740;50.672;18.690;2023-06-04T04:02:20;4.70;;;1.50;;
71080;SDS011;58740;50.672;18.690;2023-06-04T04:04:48;6.40;;;1.40;;
71080;SDS011;58740;50.672;18.690;2023-06-04T04:07:16;4.90;;;1.70;;
71080;SDS011;58740;50.672;18.690;2023-06-04T04:09:44;4.60;;;1.40;;
71080;SDS011;58740;50.672;18.690;2023-06-04T04:12:12;6.40;;;1.60;;
71080;SDS011;58740;50.672;18.690;2023-06-04T04:14:39;5.60;;;1.40;;
71080;SDS011;58740;50.672;18.690;2023-06-04T04:17:07;5.20;;;1.50;;
71080;SDS011;58740;50.672;18.690;2023-06-04T04:19:35;4.40;;;1.20;;
71080;SDS011;58740;50.672;18.690;2023-06-04T04:22:03;6.90;;;1.70;;
71080;SDS011;58740;50.672;18.690;2023-06-04T04:24:31;4.10;;;1.60;;
71080;SDS011;58740;50.672;18.690;2023-06-04T04:27:01;3.90;;;1.20;;
71080;SDS011;58740;50.672;18.690;2023-06-04T04:29:31;5.30;;;1.60;;
71080;SDS011;58740;50.672;18.690;2023-06-04T04:32:02;3.20;;;1.20;;
71080;SDS011;58740;50.672;18.690;2023-06-04T04:34:50;3.30;;;1.30;;
71080;SDS011;58740;50.672;18.690;2023-06-04T04:37:22;4.80;;;1.50;;
71080;SDS011;58740;50.672;18.690;2023-06-04T04:39:50;5.40;;;1.90;;
71080;SDS011;58740;50.672;18.690;2023-06-04T04:42:19;6.40;;;1.50;;
71080;SDS011;58740;50.672;18.690;2023-06-04T04:44:47;3.30;;;1.10;;
71080;SDS011;58740;50.672;18.690;2023-06-04T04:47:17;5.40;;;1.70;;
71080;SDS011;58740;50.672;18.690;2023-06-04T04:49:45;4.70;;;1.30;;
71080;SDS011;58740;50.672;18.690;2023-06-04T04:52:16;5.10;;;1.70;;
71080;SDS011;58740;50.672;18.690;2023-06-04T04:54:44;3.80;;;1.50;;
71080;SDS011;58740;50.672;18.690;2023-06-04T04:57:12;4.40;;;1.40;;
71080;SDS011;58740;50.672;18.690;2023-06-04T04:59:40;3.90;;;1.20;;
71080;SDS011;58740;50.672;18.690;2023-06-04T05:02:08;4.50;;;1.30;;
71080;SDS011;58740;50.672;18.690;2023-06-04T05:04:36;5.80;;;1.30;;
71080;SDS011;58740;50.672;18.690;2023-06-04T05:07:05;6.00;;;1.60;;
71080;SDS011;58740;50.672;18.690;2023-06-04T05:09:32;4.90;;;1.30;;
71080;SDS011;58740;50.672;18.690;2023-06-04T05:12:01;4.80;;;1.60;;
71080;SDS011;58740;50.672;18.690;2023-06-04T05:14:30;4.50;;;1.20;;
71080;SDS011;58740;50.672;18.690;2023-06-04T05:16:59;5.00;;;1.80;;
71080;SDS011;58740;50.672;18.690;2023-06-04T05:19:26;4.40;;;1.60;;
71080;SDS011;58740;50.672;18.690;2023-06-04T05:21:54;5.60;;;1.60;;
71080;SDS011;58740;50.672;18.690;2023-06-04T05:24:22;5.10;;;1.30;;
71080;SDS011;58740;50.672;18.690;2023-06-04T05:26:50;4.00;;;1.20;;
71080;SDS011;58740;50.672;18.690;2023-06-04T05:29:18;4.20;;;1.40;;
71080;SDS011;58740;50.672;18.690;2023-06-04T05:31:46;3.90;;;1.40;;
71080;SDS011;58740;50.672;18.690;2023-06-04T05:34:16;5.70;;;1.10;;
71080;SDS011;58740;50.672;18.690;2023-06-04T05:37:00;4.50;;;1.60;;
71080;SDS011;58740;50.672;18.690;2023-06-04T05:39:28;8.70;;;1.70;;
71080;SDS011;58740;50.672;18.690;2023-06-04T05:41:56;4.50;;;1.40;;
71080;SDS011;58740;50.672;18.690;2023-06-04T05:44:23;3.40;;;1.10;;
71080;SDS011;58740;50.672;18.690;2023-06-04T05:46:51;4.10;;;1.40;;
71080;SDS011;58740;50.672;18.690;2023-06-04T05:49:19;3.70;;;1.20;;
71080;SDS011;58740;50.672;18.690;2023-06-04T05:51:47;3.90;;;1.00;;
71080;SDS011;58740;50.672;18.690;2023-06-04T05:54:15;3.00;;;1.20;;
71080;SDS011;58740;50.672;18.690;2023-06-04T05:56:42;5.80;;;1.50;;
71080;SDS011;58740;50.672;18.690;2023-06-04T05:59:10;3.80;;;1.20;;
71080;SDS011;58740;50.672;18.690;2023-06-04T06:01:38;5.90;;;1.50;;
71080;SDS011;58740;50.672;18.690;2023-06-04T06:04:06;5.80;;;1.80;;
71080;SDS011;58740;50.672;18.690;2023-06-04T06:06:35;3.00;;;1.40;;
71080;SDS011;58740;50.672;18.690;2023-06-04T06:09:02;5.30;;;1.40;;
71080;SDS011;58740;50.672;18.690;2023-06-04T06:11:30;6.00;;;1.40;;
71080;SDS011;58740;50.672;18.690;2023-06-04T06:13:58;4.30;;;1.40;;
71080;SDS011;58740;50.672;18.690;2023-06-04T06:16:26;5.70;;;1.30;;
71080;SDS011;58740;50.672;18.690;2023-06-04T06:18:54;3.90;;;1.70;;
71080;SDS011;58740;50.672;18.690;2023-06-04T06:21:22;3.70;;;1.40;;
71080;SDS011;58740;50.672;18.690;2023-06-04T06:23:49;3.70;;;1.20;;
71080;SDS011;58740;50.672;18.690;2023-06-04T06:26:17;4.00;;;1.30;;
71080;SDS011;58740;50.672;18.690;2023-06-04T06:28:47;3.40;;;1.10;;
71080;SDS011;58740;50.672;18.690;2023-06-04T06:31:15;4.90;;;1.20;;
71080;SDS011;58740;50.672;18.690;2023-06-04T06:33:43;3.80;;;1.30;;
71080;SDS011;58740;50.672;18.690;2023-06-04T06:36:11;5.50;;;1.30;;
71080;SDS011;58740;50.672;18.690;2023-06-04T06:38:41;5.50;;;1.10;;
71080;SDS011;58740;50.672;18.690;2023-06-04T06:41:09;3.40;;;1.40;;
71080;SDS011;58740;50.672;18.690;2023-06-04T06:43:37;6.30;;;1.10;;
71080;SDS011;58740;50.672;18.690;2023-06-04T06:46:05;5.10;;;1.00;;
71080;SDS011;58740;50.672;18.690;2023-06-04T06:48:32;4.70;;;1.10;;
71080;SDS011;58740;50.672;18.690;2023-06-04T06:51:00;5.60;;;1.20;;
71080;SDS011;58740;50.672;18.690;2023-06-04T06:53:28;4.10;;;1.10;;
71080;SDS011;58740;50.672;18.690;2023-06-04T06:55:56;3.80;;;1.50;;
71080;SDS011;58740;50.672;18.690;2023-06-04T06:58:24;5.10;;;1.10;;
71080;SDS011;58740;50.672;18.690;2023-06-04T07:00:52;4.40;;;1.40;;
71080;SDS011;58740;50.672;18.690;2023-06-04T07:03:22;4.50;;;0.90;;
71080;SDS011;58740;50.672;18.690;2023-06-04T07:05:50;5.00;;;1.30;;
71080;SDS011;58740;50.672;18.690;2023-06-04T07:08:18;4.80;;;1.10;;
71080;SDS011;58740;50.672;18.690;2023-06-04T07:10:45;5.20;;;1.20;;
71080;SDS011;58740;50.672;18.690;2023-06-04T07:13:13;4.10;;;1.00;;
71080;SDS011;58740;50.672;18.690;2023-06-04T07:15:41;3.00;;;1.00;;
71080;SDS011;58740;50.672;18.690;2023-06-04T07:18:09;4.80;;;1.30;;
71080;SDS011;58740;50.672;18.690;2023-06-04T07:20:37;6.60;;;1.40;;
71080;SDS011;58740;50.672;18.690;2023-06-04T07:23:04;3.30;;;0.90;;
71080;SDS011;58740;50.672;18.690;2023-06-04T07:25:34;4.20;;;1.00;;
71080;SDS011;58740;50.672;18.690;2023-06-04T07:28:02;4.40;;;1.30;;
71080;SDS011;58740;50.672;18.690;2023-06-04T07:30:32;2.80;;;0.90;;
71080;SDS011;58740;50.672;18.690;2023-06-04T07:33:00;4.30;;;0.90;;
71080;SDS011;58740;50.672;18.690;2023-06-04T07:35:28;5.30;;;1.20;;
71080;SDS011;58740;50.672;18.690;2023-06-04T07:37:55;3.70;;;1.20;;
71080;SDS011;58740;50.672;18.690;2023-06-04T07:40:23;3.80;;;1.10;;
71080;SDS011;58740;50.672;18.690;2023-06-04T07:42:51;3.10;;;0.80;;
71080;SDS011;58740;50.672;18.690;2023-06-04T07:45:19;3.70;;;0.90;;
71080;SDS011;58740;50.672;18.690;2023-06-04T07:47:47;2.70;;;1.00;;
71080;SDS011;58740;50.672;18.690;2023-06-04T07:50:15;4.50;;;1.20;;
71080;SDS011;58740;50.672;18.690;2023-06-04T07:52:43;7.70;;;3.60;;
71080;SDS011;58740;50.672;18.690;2023-06-04T07:55:11;4.60;;;1.20;;
71080;SDS011;58740;50.672;18.690;2023-06-04T07:57:38;3.70;;;1.10;;
71080;SDS011;58740;50.672;18.690;2023-06-04T08:00:07;2.90;;;0.80;;
71080;SDS011;58740;50.672;18.690;2023-06-04T08:02:35;2.60;;;0.90;;
71080;SDS011;58740;50.672;18.690;2023-06-04T08:05:03;4.50;;;1.20;;
71080;SDS011;58740;50.672;18.690;2023-06-04T08:07:32;5.40;;;1.40;;
71080;SDS011;58740;50.672;18.690;2023-06-04T08:10:00;4.70;;;1.40;;
71080;SDS011;58740;50.672;18.690;2023-06-04T08:12:27;3.40;;;1.30;;
71080;SDS011;58740;50.672;18.690;2023-06-04T08:14:55;3.40;;;1.30;;
71080;SDS011;58740;50.672;18.690;2023-06-04T08:17:24;5.10;;;1.30;;
71080;SDS011;58740;50.672;18.690;2023-06-04T08:19:53;4.30;;;1.10;;
71080;SDS011;58740;50.672;18.690;2023-06-04T08:22:20;2.90;;;1.20;;
71080;SDS011;58740;50.672;18.690;2023-06-04T08:24:48;3.30;;;0.80;;
71080;SDS011;58740;50.672;18.690;2023-06-04T08:27:16;4.10;;;1.10;;
71080;SDS011;58740;50.672;18.690;2023-06-04T08:29:45;2.90;;;1.10;;
71080;SDS011;58740;50.672;18.690;2023-06-04T08:32:13;3.30;;;1.00;;
71080;SDS011;58740;50.672;18.690;2023-06-04T08:34:41;6.10;;;1.30;;
71080;SDS011;58740;50.672;18.690;2023-06-04T08:37:08;3.60;;;1.10;;
71080;SDS011;58740;50.672;18.690;2023-06-04T08:39:36;5.40;;;1.20;;
71080;SDS011;58740;50.672;18.690;2023-06-04T08:42:06;3.70;;;1.20;;
71080;SDS011;58740;50.672;18.690;2023-06-04T08:44:37;4.10;;;1.10;;
71080;SDS011;58740;50.672;18.690;2023-06-04T08:47:06;5.00;;;1.40;;
71080;SDS011;58740;50.672;18.690;2023-06-04T08:49:36;4.90;;;1.10;;
71080;SDS011;58740;50.672;18.690;2023-06-04T08:52:04;2.60;;;1.00;;
71080;SDS011;58740;50.672;18.690;2023-06-04T08:54:33;5.60;;;1.20;;
71080;SDS011;58740;50.672;18.690;2023-06-04T08:57:01;3.30;;;1.00;;
71080;SDS011;58740;50.672;18.690;2023-06-04T08:59:30;6.10;;;0.90;;
71080;SDS011;58740;50.672;18.690;2023-06-04T09:01:58;4.60;;;1.10;;
71080;SDS011;58740;50.672;18.690;2023-06-04T09:04:27;3.10;;;1.00;;
71080;SDS011;58740;50.672;18.690;2023-06-04T09:07:01;4.80;;;1.20;;
71080;SDS011;58740;50.672;18.690;2023-06-04T09:09:31;3.80;;;1.30;;
71080;SDS011;58740;50.672;18.690;2023-06-04T09:12:08;5.20;;;1.10;;
71080;SDS011;58740;50.672;18.690;2023-06-04T09:14:38;5.40;;;1.30;;
71080;SDS011;58740;50.672;18.690;2023-06-04T09:17:07;3.40;;;1.10;;
71080;SDS011;58740;50.672;18.690;2023-06-04T09:19:34;3.00;;;0.90;;
71080;SDS011;58740;50.672;18.690;2023-06-04T09:22:02;3.80;;;1.10;;
71080;SDS011;58740;50.672;18.690;2023-06-04T09:24:44;3.30;;;1.10;;
71080;SDS011;58740;50.672;18.690;2023-06-04T09:27:20;4.10;;;1.20;;
71080;SDS011;58740;50.672;18.690;2023-06-04T09:29:51;4.10;;;1.00;;
71080;SDS011;58740;50.672;18.690;2023-06-04T09:32:24;2.90;;;0.90;;
71080;SDS011;58740;50.672;18.690;2023-06-04T09:35:11;4.00;;;1.50;;
71080;SDS011;58740;50.672;18.690;2023-06-04T09:37:41;4.00;;;1.10;;
71080;SDS011;58740;50.672;18.690;2023-06-04T09:40:11;4.20;;;1.20;;
71080;SDS011;58740;50.672;18.690;2023-06-04T09:42:46;4.60;;;1.20;;
71080;SDS011;58740;50.672;18.690;2023-06-04T09:45:32;5.00;;;1.40;;
71080;SDS011;58740;50.672;18.690;2023-06-04T09:48:03;5.30;;;1.40;;
71080;SDS011;58740;50.672;18.690;2023-06-04T09:50:36;3.20;;;1.10;;
71080;SDS011;58740;50.672;18.690;2023-06-04T09:53:18;7.40;;;1.20;;
71080;SDS011;58740;50.672;18.690;2023-06-04T09:55:58;5.30;;;1.20;;
71080;SDS011;58740;50.672;18.690;2023-06-04T09:58:28;3.80;;;1.10;;
71080;SDS011;58740;50.672;18.690;2023-06-04T10:00:57;4.10;;;1.10;;
71080;SDS011;58740;50.672;18.690;2023-06-04T10:03:35;3.20;;;1.20;;
71080;SDS011;58740;50.672;18.690;2023-06-04T10:06:05;5.60;;;1.30;;
71080;SDS011;58740;50.672;18.690;2023-06-04T10:08:34;2.70;;;1.00;;
71080;SDS011;58740;50.672;18.690;2023-06-04T10:11:03;4.30;;;1.20;;
71080;SDS011;58740;50.672;18.690;2023-06-04T10:14:08;5.10;;;0.90;;
71080;SDS011;58740;50.672;18.690;2023-06-04T10:16:42;4.00;;;1.00;;
71080;SDS011;58740;50.672;18.690;2023-06-04T10:19:11;4.40;;;1.20;;
71080;SDS011;58740;50.672;18.690;2023-06-04T10:21:40;3.90;;;1.10;;
71080;SDS011;58740;50.672;18.690;2023-06-04T10:24:08;3.50;;;1.00;;
71080;SDS011;58740;50.672;18.690;2023-06-04T10:26:37;4.90;;;1.10;;
71080;SDS011;58740;50.672;18.690;2023-06-04T10:29:08;4.40;;;1.00;;
71080;SDS011;58740;50.672;18.690;2023-06-04T10:31:37;3.10;;;1.10;;
71080;SDS011;58740;50.672;18.690;2023-06-04T10:34:05;4.60;;;1.10;;
71080;SDS011;58740;50.672;18.690;2023-06-04T10:36:42;4.90;;;1.40;;
71080;SDS011;58740;50.672;18.690;2023-06-04T10:39:12;3.70;;;1.10;;
71080;SDS011;58740;50.672;18.690;2023-06-04T10:41:40;3.30;;;1.10;;
71080;SDS011;58740;50.672;18.690;2023-06-04T10:44:08;4.60;;;1.20;;
71080;SDS011;58740;50.672;18.690;2023-06-04T10:46:40;7.30;;;1.40;;
71080;SDS011;58740;50.672;18.690;2023-06-04T10:49:10;3.00;;;1.00;;
71080;SDS011;58740;50.672;18.690;2023-06-04T10:51:42;4.60;;;1.20;;
71080;SDS011;58740;50.672;18.690;2023-06-04T10:54:22;3.40;;;1.20;;
71080;SDS011;58740;50.672;18.690;2023-06-04T10:56:54;3.50;;;1.10;;
71080;SDS011;58740;50.672;18.690;2023-06-04T10:59:22;3.40;;;0.90;;
71080;SDS011;58740;50.672;18.690;2023-06-04T11:02:04;3.60;;;1.10;;
71080;SDS011;58740;50.672;18.690;2023-06-04T11:04:36;3.40;;;1.20;;
71080;SDS011;58740;50.672;18.690;2023-06-04T11:07:07;5.20;;;1.10;;
71080;SDS011;58740;50.672;18.690;2023-06-04T11:09:48;5.70;;;1.20;;
71080;SDS011;58740;50.672;18.690;2023-06-04T11:12:17;4.70;;;1.10;;
71080;SDS011;58740;50.672;18.690;2023-06-04T11:14:55;4.60;;;1.30;;
71080;SDS011;58740;50.672;18.690;2023-06-04T11:17:23;5.50;;;1.30;;
71080;SDS011;58740;50.672;18.690;2023-06-04T11:19:52;6.10;;;1.30;;
71080;SDS011;58740;50.672;18.690;2023-06-04T11:22:23;4.50;;;1.20;;
71080;SDS011;58740;50.672;18.690;2023-06-04T11:24:58;4.30;;;1.30;;
71080;SDS011;58740;50.672;18.690;2023-06-04T11:27:27;3.40;;;1.10;;
71080;SDS011;58740;50.672;18.690;2023-06-04T11:30:02;3.60;;;0.90;;
71080;SDS011;58740;50.672;18.690;2023-06-04T11:32:30;4.30;;;1.20;;
71080;SDS011;58740;50.672;18.690;2023-06-04T11:35:02;3.50;;;1.00;;
71080;SDS011;58740;50.672;18.690;2023-06-04T11:37:34;4.70;;;1.40;;
71080;SDS011;58740;50.672;18.690;2023-06-04T11:40:14;3.40;;;1.50;;
71080;SDS011;58740;50.672;18.690;2023-06-04T11:42:44;4.20;;;1.40;;
71080;SDS011;58740;50.672;18.690;2023-06-04T11:45:16;8.30;;;1.50;;
71080;SDS011;58740;50.672;18.690;2023-06-04T11:47:51;5.60;;;1.40;;
71080;SDS011;58740;50.672;18.690;2023-06-04T11:50:22;4.50;;;1.10;;
71080;SDS011;58740;50.672;18.690;2023-06-04T11:52:52;7.60;;;1.80;;
71080;SDS011;58740;50.672;18.690;2023-06-04T11:55:21;3.80;;;1.00;;
71080;SDS011;58740;50.672;18.690;2023-06-04T11:57:50;5.00;;;1.30;;
71080;SDS011;58740;50.672;18.690;2023-06-04T12:00:18;4.30;;;1.40;;
71080;SDS011;58740;50.672;18.690;2023-06-04T12:02:52;3.60;;;1.30;;
71080;SDS011;58740;50.672;18.690;2023-06-04T12:05:33;5.10;;;1.60;;
71080;SDS011;58740;50.672;18.690;2023-06-04T12:08:10;6.60;;;1.50;;
71080;SDS011;58740;50.672;18.690;2023-06-04T12:10:39;4.10;;;1.50;;
71080;SDS011;58740;50.672;18.690;2023-06-04T12:13:09;6.20;;;1.30;;
71080;SDS011;58740;50.672;18.690;2023-06-04T12:15:37;4.40;;;1.30;;
71080;SDS011;58740;50.672;18.690;2023-06-04T12:18:09;3.40;;;1.20;;
71080;SDS011;58740;50.672;18.690;2023-06-04T12:20:39;6.00;;;1.30;;
71080;SDS011;58740;50.672;18.690;2023-06-04T12:23:19;3.60;;;1.50;;
71080;SDS011;58740;50.672;18.690;2023-06-04T12:25:51;5.40;;;1.30;;
71080;SDS011;58740;50.672;18.690;2023-06-04T12:28:19;4.80;;;1.40;;
71080;SDS011;58740;50.672;18.690;2023-06-04T12:30:47;5.10;;;1.50;;
71080;SDS011;58740;50.672;18.690;2023-06-04T12:33:40;5.10;;;1.50;;
71080;SDS011;58740;50.672;18.690;2023-06-04T12:36:49;3.90;;;1.20;;
71080;SDS011;58740;50.672;18.690;2023-06-04T12:39:18;3.70;;;1.20;;
71080;SDS011;58740;50.672;18.690;2023-06-04T12:41:47;4.20;;;1.30;;
71080;SDS011;58740;50.672;18.690;2023-06-04T12:44:16;4.60;;;1.30;;
71080;SDS011;58740;50.672;18.690;2023-06-04T12:46:44;4.60;;;1.40;;
71080;SDS011;58740;50.672;18.690;2023-06-04T12:49:12;3.80;;;1.20;;
71080;SDS011;58740;50.672;18.690;2023-06-04T12:51:41;4.70;;;1.50;;
71080;SDS011;58740;50.672;18.690;2023-06-04T12:54:09;5.90;;;1.40;;
71080;SDS011;58740;50.672;18.690;2023-06-04T12:56:40;4.10;;;1.40;;
71080;SDS011;58740;50.672;18.690;2023-06-04T12:59:12;3.80;;;1.20;;
71080;SDS011;58740;50.672;18.690;2023-06-04T13:01:40;3.90;;;1.40;;
71080;SDS011;58740;50.672;18.690;2023-06-04T13:04:08;3.50;;;1.50;;
71080;SDS011;58740;50.672;18.690;2023-06-04T13:06:37;4.30;;;1.20;;
71080;SDS011;58740;50.672;18.690;2023-06-04T13:09:09;4.80;;;1.00;;
71080;SDS011;58740;50.672;18.690;2023-06-04T13:11:38;4.20;;;1.40;;
71080;SDS011;58740;50.672;18.690;2023-06-04T13:14:07;7.20;;;1.30;;
71080;SDS011;58740;50.672;18.690;2023-06-04T13:16:38;4.70;;;1.60;;
71080;SDS011;58740;50.672;18.690;2023-06-04T13:19:06;4.60;;;1.40;;
71080;SDS011;58740;50.672;18.690;2023-06-04T13:21:35;4.10;;;1.30;;
71080;SDS011;58740;50.672;18.690;2023-06-04T13:24:04;3.40;;;1.30;;
71080;SDS011;58740;50.672;18.690;2023-06-04T13:26:32;3.00;;;1.20;;
71080;SDS011;58740;50.672;18.690;2023-06-04T13:29:00;3.90;;;1.90;;
71080;SDS011;58740;50.672;18.690;2023-06-04T13:31:27;5.10;;;1.50;;
71080;SDS011;58740;50.672;18.690;2023-06-04T13:33:55;4.70;;;1.40;;
71080;SDS011;58740;50.672;18.690;2023-06-04T13:36:28;7.40;;;1.60;;
71080;SDS011;58740;50.672;18.690;2023-06-04T13:38:56;3.70;;;1.20;;
71080;SDS011;58740;50.672;18.690;2023-06-04T13:41:24;5.60;;;1.50;;
71080;SDS011;58740;50.672;18.690;2023-06-04T13:43:52;4.10;;;1.00;;
71080;SDS011;58740;50.672;18.690;2023-06-04T13:46:20;4.40;;;1.30;;
71080;SDS011;58740;50.672;18.690;2023-06-04T13:48:48;3.10;;;1.30;;
71080;SDS011;58740;50.672;18.690;2023-06-04T13:51:16;5.10;;;1.40;;
71080;SDS011;58740;50.672;18.690;2023-06-04T13:53:44;5.40;;;1.40;;
71080;SDS011;58740;50.672;18.690;2023-06-04T13:56:13;3.70;;;1.30;;
71080;SDS011;58740;50.672;18.690;2023-06-04T13:58:41;3.30;;;1.10;;
71080;SDS011;58740;50.672;18.690;2023-06-04T14:01:09;4.90;;;1.30;;
71080;SDS011;58740;50.672;18.690;2023-06-04T14:03:37;4.70;;;1.40;;
71080;SDS011;58740;50.672;18.690;2023-06-04T14:06:06;4.60;;;1.30;;
71080;SDS011;58740;50.672;18.690;2023-06-04T14:08:33;4.40;;;1.30;;
71080;SDS011;58740;50.672;18.690;2023-06-04T14:11:02;3.90;;;0.90;;
71080;SDS011;58740;50.672;18.690;2023-06-04T14:13:30;5.40;;;1.40;;
71080;SDS011;58740;50.672;18.690;2023-06-04T14:16:00;3.80;;;1.10;;
71080;SDS011;58740;50.672;18.690;2023-06-04T14:18:28;5.50;;;1.30;;
71080;SDS011;58740;50.672;18.690;2023-06-04T14:20:55;4.50;;;1.30;;
71080;SDS011;58740;50.672;18.690;2023-06-04T14:23:23;4.50;;;1.30;;
71080;SDS011;58740;50.672;18.690;2023-06-04T14:25:51;5.30;;;1.40;;
71080;SDS011;58740;50.672;18.690;2023-06-04T14:28:19;4.70;;;1.40;;
71080;SDS011;58740;50.672;18.690;2023-06-04T14:30:48;5.40;;;1.70;;
71080;SDS011;58740;50.672;18.690;2023-06-04T14:33:16;9.10;;;1.60;;
71080;SDS011;58740;50.672;18.690;2023-06-04T14:35:44;4.80;;;1.20;;
71080;SDS011;58740;50.672;18.690;2023-06-04T14:38:14;4.50;;;1.40;;
71080;SDS011;58740;50.672;18.690;2023-06-04T14:40:43;5.50;;;1.40;;
71080;SDS011;58740;50.672;18.690;2023-06-04T14:43:11;4.10;;;1.30;;
71080;SDS011;58740;50.672;18.690;2023-06-04T14:45:39;3.80;;;1.30;;
71080;SDS011;58740;50.672;18.690;2023-06-04T14:48:08;4.80;;;1.50;;
71080;SDS011;58740;50.672;18.690;2023-06-04T14:50:39;7.60;;;1.80;;